No particular awareness of the weather is required.    There are no Weather-warnings


Meteo18 Weather Cam more information Meteo18 Weather Cam


Thunder radar more information blitzortung!


Rain radar more information rain snow radar


Visit our other weather sites:

Template documentation
and downloads

And another site



Weather Underground History page Text

Daily Summary for February 21, 2018 Units:  English    Metric   Both
« Previous Day
Next Day »
Daily Weekly Monthly Yearly Custom
  High: Low: Average:
Temperature: TemperatureC °F -0.6 °F 1.7 °F
Dew Point: DewpointC °F -3.2 °F -1.5 °F
Humidity: Humidity % 62 % 79 %
Wind Speed: WindSpeedKMH mph 0.0 mph 10.7 mph
Wind Gust: WindSpeedGustKMH mph - -
Wind:- - ESE
Pressure: PressurehPa in 1016.8 in -
Precipitation: 0.0 in    
Historical Graphs
 
 
Tabular Data for February 21, 2018
Time Temperature Dew Point Pressure Wind Wind Speed Wind Gust Humidity Rainfall Rate (Hourly)
TemperatureC °F DewpointC °F PressurehPa in Calm     Humidity % HourlyPrecipMM in
00:02 2.3 °F -0.1 °F 1017.5 in NE 13.0 mph 17.7 mph 84 % 0.0 in
00:08 2.3 °F -0.1 °F 1017.5 in NNE 14.3 mph 14.5 mph 84 % 0.0 in
00:14 2.2 °F -0.2 °F 1017.8 in NE 6.4 mph 12.9 mph 84 % 0.0 in
00:20 2.2 °F -0.1 °F 1017.8 in NNW 1.4 mph 12.9 mph 85 % 0.0 in
00:26 2.1 °F -0.2 °F 1017.8 in NE 4.7 mph 9.7 mph 85 % 0.0 in
00:32 2.1 °F -0.2 °F 1017.8 in NNW 6.4 mph 20.9 mph 85 % 0.0 in
00:38 1.9 °F -0.4 °F 1018.2 in North 3.2 mph 16.1 mph 85 % 0.0 in
00:44 1.8 °F -0.5 °F 1018.2 in NNW 7.9 mph 11.3 mph 85 % 0.0 in
00:50 1.8 °F -0.5 °F 1018.2 in NNE 3.2 mph 17.7 mph 85 % 0.0 in
00:56 1.8 °F -0.5 °F 1018.2 in North 9.7 mph 11.3 mph 85 % 0.0 in
01:02 1.8 °F -0.5 °F 1018.2 in NE 6.4 mph 11.3 mph 85 % 0.0 in
01:08 1.7 °F -0.6 °F 1018.2 in NNE 4.7 mph 12.9 mph 85 % 0.0 in
01:14 1.7 °F -0.4 °F 1018.2 in NNW 6.4 mph 11.3 mph 86 % 0.0 in
01:20 1.7 °F -0.4 °F 1018.5 in ENE 1.4 mph 12.9 mph 86 % 0.0 in
01:26 1.6 °F -0.5 °F 1018.5 in NNW 9.7 mph 14.5 mph 86 % 0.0 in
01:32 1.6 °F -0.5 °F 1018.5 in NNW 3.2 mph 9.7 mph 86 % 0.0 in
01:38 1.6 °F -0.3 °F 1018.8 in NNE 6.4 mph 8.0 mph 87 % 0.0 in
01:44 1.6 °F -0.5 °F 1018.8 in North 6.4 mph 12.9 mph 86 % 0.0 in
01:50 1.6 °F -0.5 °F 1018.8 in NNE 7.9 mph 9.7 mph 86 % 0.0 in
01:56 1.6 °F -0.5 °F 1018.8 in NE 9.7 mph 16.1 mph 86 % 0.0 in
02:02 1.6 °F -0.5 °F 1018.5 in NNW 6.4 mph 16.1 mph 86 % 0.0 in
02:08 1.6 °F -0.5 °F 1018.5 in North 4.7 mph 12.9 mph 86 % 0.0 in
02:14 1.6 °F -0.6 °F 1018.5 in North 9.7 mph 14.5 mph 85 % 0.0 in
02:20 1.6 °F -0.5 °F 1018.5 in ENE 1.4 mph 9.7 mph 86 % 0.0 in
02:26 1.5 °F -0.7 °F 1018.5 in NE 9.7 mph 16.1 mph 85 % 0.0 in
02:32 1.4 °F -0.8 °F 1018.5 in NE 9.7 mph 11.3 mph 85 % 0.0 in
02:38 1.3 °F -0.8 °F 1018.5 in NNE 3.2 mph 8.0 mph 86 % 0.0 in
02:44 1.2 °F -0.9 °F 1018.5 in North 1.4 mph 9.7 mph 86 % 0.0 in
02:50 1.2 °F -0.9 °F 1018.5 in North 3.2 mph 6.4 mph 86 % 0.0 in
02:56 1.1 °F -1.0 °F 1018.5 in NE 6.4 mph 9.7 mph 86 % 0.0 in
03:02 1.0 °F -1.1 °F 1018.5 in Calm   6.4 mph 86 % 0.0 in
03:08 0.9 °F -1.2 °F 1018.5 in NNE 3.2 mph 8.0 mph 86 % 0.0 in
03:14 0.8 °F -1.3 °F 1018.5 in Calm   4.8 mph 86 % 0.0 in
03:20 0.7 °F -1.4 °F 1018.2 in Calm   3.2 mph 86 % 0.0 in
03:26 0.5 °F -1.6 °F 1018.2 in Calm   4.8 mph 86 % 0.0 in
03:32 0.4 °F -1.7 °F 1018.2 in Calm   4.8 mph 86 % 0.0 in
03:38 0.3 °F -1.8 °F 1018.2 in Calm   1.6 mph 86 % 0.0 in
03:44 0.3 °F -1.8 °F 1018.2 in Calm   6.4 mph 86 % 0.0 in
03:50 0.4 °F -1.7 °F 1017.8 in Calm   9.7 mph 86 % 0.0 in
03:56 0.5 °F -1.7 °F 1017.8 in NNE 6.4 mph 6.4 mph 85 % 0.0 in
04:02 0.6 °F -1.6 °F 1017.8 in NE 1.4 mph 11.3 mph 85 % 0.0 in
04:08 0.7 °F -1.7 °F 1017.8 in NE 9.7 mph 9.7 mph 84 % 0.0 in
04:14 0.7 °F -1.7 °F 1017.8 in North 4.7 mph 11.3 mph 84 % 0.0 in
04:20 0.6 °F -1.8 °F 1017.8 in Calm   4.8 mph 84 % 0.0 in
04:26 0.5 °F -1.9 °F 1017.8 in Calm   8.0 mph 84 % 0.0 in
04:32 0.4 °F -1.8 °F 1017.8 in North 6.4 mph 16.1 mph 85 % 0.0 in
04:38 0.3 °F -1.8 °F 1017.8 in NNE 16.3 mph 16.3 mph 86 % 0.0 in
04:45 0.3 °F -1.8 °F 1017.8 in Calm   12.9 mph 86 % 0.0 in
04:51 0.4 °F -1.7 °F 1017.8 in ENE 1.4 mph 14.5 mph 86 % 0.0 in
04:57 0.3 °F -1.8 °F 1017.8 in North 3.2 mph 9.7 mph 86 % 0.0 in
05:03 0.4 °F -1.8 °F 1017.8 in North 1.4 mph 12.9 mph 85 % 0.0 in
05:09 0.3 °F -1.9 °F 1017.8 in Calm   9.7 mph 85 % 0.0 in
05:15 0.3 °F -1.9 °F 1017.8 in NNE 6.4 mph 12.9 mph 85 % 0.0 in
05:21 0.3 °F -1.8 °F 1017.8 in NNE 4.7 mph 12.9 mph 86 % 0.0 in
05:27 0.2 °F -1.9 °F 1017.8 in NNW 6.4 mph 17.7 mph 86 % 0.0 in
05:33 0.2 °F -1.7 °F 1017.8 in NNE 4.7 mph 14.5 mph 87 % 0.0 in
05:39 0.2 °F -1.7 °F 1018.2 in NNW 6.4 mph 14.5 mph 87 % 0.0 in
05:45 0.2 °F -1.7 °F 1018.2 in North 16.3 mph 17.7 mph 87 % 0.0 in
05:51 0.2 °F -1.7 °F 1018.2 in NNE 6.4 mph 16.1 mph 87 % 0.0 in
05:57 0.2 °F -1.7 °F 1017.8 in NNE 7.9 mph 14.5 mph 87 % 0.0 in
06:03 0.2 °F -1.7 °F 1018.2 in NNE 9.7 mph 11.3 mph 87 % 0.0 in
06:09 0.1 °F -1.7 °F 1018.2 in NE 7.9 mph 16.1 mph 88 % 0.0 in
06:15 0.1 °F -1.7 °F 1018.2 in North 11.1 mph 20.9 mph 88 % 0.0 in
06:21 0.0 °F -1.7 °F 1018.2 in ENE 4.7 mph 11.3 mph 88 % 0.0 in
06:27 -0.1 °F -1.7 °F 1018.2 in NNE 3.2 mph 17.7 mph 89 % 0.0 in
06:33 -0.1 °F -1.5 °F 1018.2 in North 7.9 mph 17.7 mph 90 % 0.0 in
06:39 -0.2 °F -1.6 °F 1018.2 in North 11.1 mph 19.3 mph 90 % 0.0 in
06:45 -0.2 °F -1.5 °F 1018.2 in North 9.7 mph 14.5 mph 91 % 0.0 in
06:51 -0.3 °F -1.6 °F 1018.5 in NNW 13.0 mph 27.4 mph 91 % 0.0 in
06:57 -0.3 °F -1.6 °F 1018.2 in NNE 9.7 mph 17.7 mph 91 % 0.0 in
07:03 -0.3 °F -1.6 °F 1018.2 in North 7.9 mph 17.7 mph 91 % 0.0 in
07:09 -0.4 °F -1.5 °F 1018.2 in NE 11.1 mph 11.3 mph 92 % 0.0 in
07:15 -0.5 °F -1.6 °F 1018.2 in North 6.4 mph 16.1 mph 92 % 0.0 in
07:21 -0.4 °F -1.7 °F 1018.5 in NNE 6.4 mph 14.5 mph 91 % 0.0 in
07:27 -0.4 °F -1.7 °F 1018.5 in NNE 6.4 mph 19.3 mph 91 % 0.0 in
07:33 -0.3 °F -1.7 °F 1018.5 in NE 19.5 mph 19.5 mph 90 % 0.0 in
07:39 -0.3 °F -1.7 °F 1018.5 in NE 1.4 mph 12.9 mph 90 % 0.0 in
07:45 -0.4 °F -1.8 °F 1018.5 in NNW 3.2 mph 19.3 mph 90 % 0.0 in
07:51 -0.4 °F -1.8 °F 1018.5 in NNE 4.7 mph 19.3 mph 90 % 0.0 in
07:57 -0.6 °F -2.0 °F 1018.5 in NE 3.2 mph 11.3 mph 90 % 0.0 in
08:03 -0.6 °F -1.9 °F 1018.5 in NE 7.9 mph 16.1 mph 91 % 0.0 in
08:09 -0.6 °F -2.0 °F 1018.5 in NE 9.7 mph 19.3 mph 90 % 0.0 in
08:15 -0.4 °F -1.8 °F 1018.5 in NE 9.7 mph 22.5 mph 90 % 0.0 in
08:21 -0.4 °F -2.0 °F 1018.2 in NNW 4.7 mph 27.4 mph 89 % 0.0 in
08:27 -0.3 °F -2.0 °F 1018.5 in NE 16.3 mph 27.4 mph 88 % 0.0 in
08:33 -0.2 °F -2.3 °F 1018.5 in North 25.9 mph 25.9 mph 86 % 0.0 in
08:39 -0.1 °F -2.3 °F 1018.5 in NNE 13.0 mph 27.4 mph 85 % 0.0 in
08:45 0.0 °F -2.4 °F 1018.5 in NE 16.3 mph 24.1 mph 84 % 0.0 in
08:51 0.1 °F -2.3 °F 1018.5 in NE 14.3 mph 22.5 mph 84 % 0.0 in
08:57 0.1 °F -2.4 °F 1018.5 in NNE 24.1 mph 29.0 mph 83 % 0.0 in
09:03 0.2 °F -2.3 °F 1018.5 in ENE 19.5 mph 32.2 mph 83 % 0.0 in
09:09 0.2 °F -2.3 °F 1018.5 in NNE 13.0 mph 22.5 mph 83 % 0.0 in
09:15 0.2 °F -2.3 °F 1018.5 in NE 19.5 mph 30.6 mph 83 % 0.0 in
09:21 0.2 °F -2.3 °F 1018.8 in NNE 16.3 mph 20.9 mph 83 % 0.0 in
09:27 0.3 °F -2.2 °F 1018.8 in NNE 11.1 mph 19.3 mph 83 % 0.0 in
09:33 0.4 °F -2.3 °F 1018.8 in North 16.3 mph 16.3 mph 82 % 0.0 in
09:39 0.4 °F -2.3 °F 1018.8 in NE 11.1 mph 16.1 mph 82 % 0.0 in
09:45 0.6 °F -2.3 °F 1018.8 in NNE 7.9 mph 19.3 mph 81 % 0.0 in
09:51 0.6 °F -2.5 °F 1018.8 in North 14.3 mph 24.1 mph 80 % 0.0 in
09:57 0.7 °F -2.4 °F 1018.8 in NE 16.3 mph 19.3 mph 80 % 0.0 in
10:03 0.7 °F -2.4 °F 1019.2 in NNE 20.9 mph 20.9 mph 80 % 0.0 in
10:09 0.8 °F -2.4 °F 1019.2 in North 7.9 mph 22.5 mph 79 % 0.0 in
10:15 0.9 °F -2.5 °F 1019.2 in NNW 11.1 mph 25.7 mph 78 % 0.0 in
10:21 0.9 °F -2.7 °F 1019.2 in NNE 11.1 mph 32.2 mph 77 % 0.0 in
10:27 1.1 °F -2.7 °F 1019.2 in NNE 25.9 mph 29.0 mph 76 % 0.0 in
10:33 1.2 °F -2.6 °F 1019.2 in NNE 19.5 mph 27.4 mph 76 % 0.0 in
10:39 1.3 °F -2.3 °F 1019.2 in NE 19.5 mph 20.9 mph 77 % 0.0 in
10:49 1.5 °F -2.6 °F 1019.2 in NE 16.3 mph 25.7 mph 74 % 0.0 in
10:55 1.6 °F -2.5 °F 1019.2 in NNE 13.0 mph 29.0 mph 74 % 0.0 in
11:01 1.6 °F -2.7 °F 1019.2 in NNE 19.5 mph 35.4 mph 73 % 0.0 in
11:07 1.7 °F -3.0 °F 1019.2 in NE 22.7 mph 33.8 mph 71 % 0.0 in
11:13 1.7 °F -3.2 °F 1019.2 in North 14.3 mph 35.4 mph 70 % 0.0 in
11:19 1.8 °F -2.9 °F 1019.2 in NE 17.7 mph 33.8 mph 71 % 0.0 in
11:25 1.8 °F -3.1 °F 1019.2 in NE 25.9 mph 38.6 mph 70 % 0.0 in
11:31 1.9 °F -2.6 °F 1019.2 in NE 28.8 mph 30.6 mph 72 % 0.0 in
11:37 2.0 °F -2.7 °F 1019.2 in NE 14.3 mph 25.7 mph 71 % 0.0 in
11:43 2.2 °F -2.5 °F 1019.2 in NNE 16.3 mph 30.6 mph 71 % 0.0 in
11:49 2.4 °F -2.1 °F 1019.2 in NNW 9.7 mph 19.3 mph 72 % 0.0 in
11:55 2.5 °F -2.2 °F 1019.2 in NNE 19.5 mph 29.0 mph 71 % 0.0 in
12:01 2.4 °F -2.5 °F 1019.2 in NNE 17.7 mph 22.5 mph 70 % 0.0 in
12:07 2.5 °F -2.6 °F 1019.2 in NNE 11.1 mph 27.4 mph 69 % 0.0 in
12:13 2.6 °F -2.1 °F 1019.2 in NE 16.3 mph 20.9 mph 71 % 0.0 in
12:19 2.6 °F -2.5 °F 1019.2 in NE 13.0 mph 25.7 mph 69 % 0.0 in
12:25 2.6 °F -2.9 °F 1018.8 in NNW 9.7 mph 25.7 mph 67 % 0.0 in
12:31 2.7 °F -2.6 °F 1018.8 in NNE 20.9 mph 29.0 mph 68 % 0.0 in
12:37 2.8 °F -2.3 °F 1018.8 in East 9.7 mph 24.1 mph 69 % 0.0 in
12:43 3.1 °F -2.0 °F 1018.8 in North 11.1 mph 16.1 mph 69 % 0.0 in
12:49 3.2 °F -1.9 °F 1018.8 in North 16.3 mph 22.5 mph 69 % 0.0 in
12:55 3.2 °F -2.3 °F 1018.8 in ENE 11.1 mph 27.4 mph 67 % 0.0 in
13:01 3.4 °F -2.1 °F 1018.5 in ENE 11.1 mph 27.4 mph 67 % 0.0 in
13:07 3.4 °F -1.7 °F 1018.5 in NNE 7.9 mph 22.5 mph 69 % 0.0 in
13:13 3.6 °F -2.0 °F 1018.5 in NW 19.5 mph 25.7 mph 67 % 0.0 in
13:19 3.7 °F -1.9 °F 1018.5 in NE 17.7 mph 20.9 mph 67 % 0.0 in
13:25 3.8 °F -1.8 °F 1018.5 in NE 16.3 mph 20.9 mph 67 % 0.0 in
13:31 3.9 °F -1.5 °F 1018.2 in North 14.3 mph 24.1 mph 68 % 0.0 in
13:37 4.1 °F -1.5 °F 1018.2 in NNW 19.5 mph 24.1 mph 67 % 0.0 in
13:43 4.1 °F -2.1 °F 1018.2 in NNE 17.7 mph 30.6 mph 64 % 0.0 in
13:49 4.0 °F -2.0 °F 1018.2 in North 20.9 mph 30.6 mph 65 % 0.0 in
13:55 4.2 °F -1.6 °F 1018.2 in North 16.3 mph 24.1 mph 66 % 0.0 in
14:01 4.2 °F -1.2 °F 1018.2 in NNW 17.7 mph 22.5 mph 68 % 0.0 in
14:07 4.2 °F -1.6 °F 1017.8 in NNW 17.7 mph 20.9 mph 66 % 0.0 in
14:13 4.4 °F -1.4 °F 1017.8 in North 11.1 mph 22.5 mph 66 % 0.0 in
14:19 4.4 °F -1.6 °F 1017.8 in NNE 17.7 mph 25.7 mph 65 % 0.0 in
14:25 4.5 °F -1.3 °F 1017.8 in North 9.7 mph 24.1 mph 66 % 0.0 in
14:31 4.6 °F -1.2 °F 1017.8 in NNE 16.3 mph 22.5 mph 66 % 0.0 in
14:37 4.7 °F -1.3 °F 1017.8 in North 27.4 mph 27.4 mph 65 % 0.0 in
14:43 4.6 °F -1.2 °F 1017.8 in NE 19.5 mph 22.5 mph 66 % 0.0 in
14:49 4.5 °F -1.5 °F 1017.5 in NNE 14.3 mph 30.6 mph 65 % 0.0 in
14:55 4.6 °F -1.4 °F 1017.5 in NE 19.5 mph 27.4 mph 65 % 0.0 in
15:01 4.6 °F -1.4 °F 1017.5 in NNE 25.9 mph 32.2 mph 65 % 0.0 in
15:07 4.6 °F -1.6 °F 1017.5 in NNW 20.9 mph 25.7 mph 64 % 0.0 in
15:13 4.6 °F -2.1 °F 1017.2 in North 9.7 mph 33.8 mph 62 % 0.0 in
15:19 4.7 °F -1.1 °F 1017.2 in NNE 30.6 mph 30.6 mph 66 % 0.0 in
15:25 4.7 °F -1.5 °F 1017.2 in NE 9.7 mph 30.6 mph 64 % 0.0 in
15:31 4.8 °F -1.2 °F 1017.2 in NE 13.0 mph 29.0 mph 65 % 0.0 in
15:37 4.8 °F -1.2 °F 1017.2 in NNE 16.3 mph 24.1 mph 65 % 0.0 in
15:43 4.8 °F -1.2 °F 1017.2 in NE 22.7 mph 37.0 mph 65 % 0.0 in
15:49 4.9 °F -0.9 °F 1017.2 in North 20.9 mph 20.9 mph 66 % 0.0 in
15:55 4.9 °F -1.3 °F 1017.2 in North 17.7 mph 29.0 mph 64 % 0.0 in
16:01 4.8 °F -1.0 °F 1016.8 in NNE 11.1 mph 24.1 mph 66 % 0.0 in
16:07 4.8 °F -0.8 °F 1016.8 in NE 16.3 mph 27.4 mph 67 % 0.0 in
16:13 4.7 °F -0.7 °F 1016.8 in NNE 14.3 mph 22.5 mph 68 % 0.0 in
16:19 4.7 °F -0.7 °F 1017.2 in NE 14.3 mph 29.0 mph 68 % 0.0 in
16:25 4.7 °F -0.5 °F 1017.2 in NNE 17.7 mph 24.1 mph 69 % 0.0 in
16:31 4.6 °F -0.8 °F 1017.2 in North 25.9 mph 37.0 mph 68 % 0.0 in
16:37 4.6 °F -0.8 °F 1017.2 in NNE 6.4 mph 24.1 mph 68 % 0.0 in
16:43 4.6 °F -0.6 °F 1017.2 in NNW 11.1 mph 33.8 mph 69 % 0.0 in
16:49 4.5 °F -0.5 °F 1017.2 in NNW 13.0 mph 24.1 mph 70 % 0.0 in
16:55 4.3 °F -0.5 °F 1017.2 in NNW 16.3 mph 22.5 mph 71 % 0.0 in
17:01 4.2 °F -0.6 °F 1017.2 in North 4.7 mph 22.5 mph 71 % 0.0 in
17:07 4.1 °F -0.5 °F 1017.2 in North 4.7 mph 20.9 mph 72 % 0.0 in
17:13 3.9 °F -0.7 °F 1017.5 in North 11.1 mph 20.9 mph 72 % 0.0 in
17:19 3.8 °F -0.6 °F 1017.5 in NNE 20.9 mph 27.4 mph 73 % 0.0 in
17:25 3.7 °F -0.7 °F 1017.5 in NNE 22.7 mph 22.7 mph 73 % 0.0 in
17:32 3.7 °F -0.5 °F 1017.5 in NNE 11.1 mph 17.7 mph 74 % 0.0 in
17:38 3.6 °F -0.8 °F 1017.5 in NE 13.0 mph 17.7 mph 73 % 0.0 in
17:44 3.4 °F -1.0 °F 1017.5 in NNW 9.7 mph 22.5 mph 73 % 0.0 in
17:50 3.3 °F -0.9 °F 1017.5 in NNE 13.0 mph 16.1 mph 74 % 0.0 in
17:56 3.2 °F -0.8 °F 1017.5 in NNW 13.0 mph 13.0 mph 75 % 0.0 in
18:02 3.0 °F -1.0 °F 1017.8 in NNW 11.1 mph 16.1 mph 75 % 0.0 in
18:08 2.8 °F -1.0 °F 1017.8 in North 9.7 mph 16.1 mph 76 % 0.0 in
18:14 2.7 °F -1.1 °F 1017.8 in NE 1.4 mph 11.3 mph 76 % 0.0 in
18:20 2.6 °F -1.0 °F 1017.8 in NNW 7.9 mph 16.1 mph 77 % 0.0 in
18:26 2.5 °F -1.1 °F 1017.8 in North 3.2 mph 12.9 mph 77 % 0.0 in
18:32 2.4 °F -1.0 °F 1017.8 in NNE 6.4 mph 11.3 mph 78 % 0.0 in
18:38 2.3 °F -1.1 °F 1017.8 in NNE 3.2 mph 9.7 mph 78 % 0.0 in
18:44 2.2 °F -1.2 °F 1017.8 in NNW 7.9 mph 11.3 mph 78 % 0.0 in
18:50 2.1 °F -1.2 °F 1017.8 in North 4.7 mph 17.7 mph 79 % 0.0 in
18:56 2.1 °F -1.2 °F 1017.8 in WNW 3.2 mph 17.7 mph 79 % 0.0 in
19:02 2.0 °F -1.3 °F 1017.8 in NNW 7.9 mph 17.7 mph 79 % 0.0 in
19:08 1.9 °F -1.4 °F 1017.8 in NW 4.7 mph 9.7 mph 79 % 0.0 in
19:14 1.9 °F -1.2 °F 1017.8 in NE 3.2 mph 12.9 mph 80 % 0.0 in
19:20 1.8 °F -1.3 °F 1017.8 in NNW 4.7 mph 16.1 mph 80 % 0.0 in
19:26 1.8 °F -1.3 °F 1017.8 in NNE 11.1 mph 16.1 mph 80 % 0.0 in
19:32 1.7 °F -1.2 °F 1017.8 in NE 3.2 mph 12.9 mph 81 % 0.0 in
19:38 1.6 °F -1.3 °F 1017.8 in NE 14.3 mph 14.5 mph 81 % 0.0 in
19:44 1.5 °F -1.2 °F 1017.8 in NNW 9.7 mph 16.1 mph 82 % 0.0 in
19:50 1.5 °F -1.2 °F 1017.8 in NE 4.7 mph 11.3 mph 82 % 0.0 in
19:56 1.5 °F -1.2 °F 1017.8 in North 9.7 mph 12.9 mph 82 % 0.0 in
20:02 1.6 °F -1.1 °F 1017.8 in North 4.7 mph 12.9 mph 82 % 0.0 in
20:08 1.5 °F -1.1 °F 1017.8 in ENE 7.9 mph 16.1 mph 83 % 0.0 in
20:14 1.5 °F -1.1 °F 1017.8 in North 4.7 mph 17.7 mph 83 % 0.0 in
20:20 1.5 °F -1.1 °F 1017.8 in NNE 13.0 mph 17.7 mph 83 % 0.0 in
20:26 1.5 °F -1.1 °F 1017.8 in North 17.7 mph 19.3 mph 83 % 0.0 in
20:32 1.5 °F -1.2 °F 1017.8 in NNE 11.1 mph 22.5 mph 82 % 0.0 in
20:38 1.5 °F -1.2 °F 1017.8 in North 7.9 mph 19.3 mph 82 % 0.0 in
20:44 1.4 °F -1.3 °F 1017.8 in NE 14.3 mph 20.9 mph 82 % 0.0 in
20:50 1.4 °F -1.3 °F 1017.8 in NNW 9.7 mph 27.4 mph 82 % 0.0 in
20:56 1.4 °F -1.3 °F 1017.8 in NE 6.4 mph 17.7 mph 82 % 0.0 in
21:02 1.4 °F -1.3 °F 1017.8 in North 9.7 mph 16.1 mph 82 % 0.0 in
21:08 1.3 °F -1.4 °F 1017.8 in NNW 11.1 mph 20.9 mph 82 % 0.0 in
21:14 1.3 °F -1.4 °F 1017.8 in NE 11.1 mph 25.7 mph 82 % 0.0 in
21:20 1.3 °F -1.4 °F 1017.8 in NNE 11.1 mph 20.9 mph 82 % 0.0 in
21:26 1.3 °F -1.4 °F 1017.8 in NNW 24.1 mph 24.1 mph 82 % 0.0 in
21:32 1.3 °F -1.4 °F 1017.8 in North 16.3 mph 20.9 mph 82 % 0.0 in
21:38 1.3 °F -1.4 °F 1017.8 in NNW 7.9 mph 20.9 mph 82 % 0.0 in
21:44 1.3 °F -1.3 °F 1017.8 in NNE 19.5 mph 22.5 mph 83 % 0.0 in
21:50 1.2 °F -1.4 °F 1017.8 in NE 9.7 mph 24.1 mph 83 % 0.0 in
21:58 1.2 °F -1.2 °F 1017.5 in North 6.4 mph 22.5 mph 84 % 0.0 in
22:04 1.1 °F -1.3 °F 1017.5 in West 7.9 mph 17.7 mph 84 % 0.0 in
22:10 1.1 °F -1.3 °F 1017.5 in NE 9.7 mph 20.9 mph 84 % 0.0 in
22:16 1.1 °F -1.1 °F 1017.5 in NNW 7.9 mph 19.3 mph 85 % 0.0 in
22:22 1.0 °F -1.2 °F 1017.5 in NNE 14.3 mph 24.1 mph 85 % 0.0 in
22:28 0.9 °F -1.3 °F 1017.5 in ENE 3.2 mph 16.1 mph 85 % 0.0 in
22:34 0.9 °F -1.3 °F 1017.5 in NNW 7.9 mph 17.7 mph 85 % 0.0 in
22:38 0.9 °F -1.3 °F 1017.5 in NE 7.9 mph 20.9 mph 85 % 0.0 in
22:42 0.8 °F -1.4 °F 1017.5 in NW 3.2 mph 22.5 mph 85 % 0.0 in
22:48 0.8 °F -1.3 °F 1017.5 in ENE 7.9 mph 17.7 mph 86 % 0.0 in
22:54 0.7 °F -1.4 °F 1017.2 in North 3.2 mph 20.9 mph 86 % 0.0 in
23:00 0.6 °F -1.5 °F 1017.2 in North 14.3 mph 24.1 mph 86 % 0.0 in
23:06 0.7 °F -1.4 °F 1017.2 in NNE 13.0 mph 32.2 mph 86 % 0.0 in
23:12 0.6 °F -1.3 °F 1016.8 in NNW 14.3 mph 20.9 mph 87 % 0.0 in
23:18 0.5 °F -1.4 °F 1016.8 in West 9.7 mph 25.7 mph 87 % 0.0 in
23:24 0.4 °F -1.5 °F 1016.8 in NNE 7.9 mph 22.5 mph 87 % 0.0 in
23:30 0.4 °F -1.5 °F 1016.8 in NE 13.0 mph 22.5 mph 87 % 0.0 in
23:36 0.3 °F -1.6 °F 1016.8 in North 11.1 mph 19.3 mph 87 % 0.0 in
23:42 0.3 °F -1.6 °F 1016.8 in NNE 14.3 mph 24.1 mph 87 % 0.0 in
23:48 0.3 °F -1.6 °F 1016.8 in NNE 17.7 mph 19.3 mph 87 % 0.0 in
23:54 0.3 °F -1.5 °F 1016.8 in NE 6.4 mph 20.9 mph 88 % 0.0 in
Meteo18
Compliments of Weather Underground - 4 mb

Script developed by  Jim McMurry - jmcmurry@mwt.net Adapted for the template by  Wim van der Kuil - Leuven-Template.eu

You find our weather info also at:

European Weather Network

Weather Underground

Equipment we use:

Weather-station
Davis Vue

Weather-program
Meteobridge

Weather-server
Raspberry PI 2 B+

Provider
1 and 1

Davis Vue

Meteobridge

Raspberry PI 2 B+

1 and 1